DNA419 LRBC-LIPE
Flight info
| Callsign | DNA419 |
|---|---|
| Flight time | N/A |
| Altitude | 35000 |
| Route | REDKU DCT SB095 DCT DEGET DCT EBORO DCT VEBAL DCT NEMEK DCT ROTAR DCT CHI M859 LUMAV |
| Aircraft | A320/M-SDE3FGHIRWY/LB1 |
Departure
| Time | 2026-04-23 07:56 |
|---|---|
| Airport | Bacău George Enescu International Airport (LRBC) |
Arrival
| Time | N/A |
|---|---|
| Airport | Bologna Guglielmo Marconi Airport (LIPE) |
| Time | Latitude | Longitude | Altitude | Speed | Heading |
|---|---|---|---|---|---|
| 2026-04-23 07:29 | 46.53197 | 26.90981 | 620 ft | 0 kts | 74° |
| 2026-04-23 07:47 | 46.53195 | 26.90969 | 614 ft | 2 kts | 73° |
| 2026-04-23 07:47 | 46.53190 | 26.90946 | 618 ft | 2 kts | 69° |
| 2026-04-23 07:47 | 46.53184 | 26.90924 | 624 ft | 2 kts | 64° |
| 2026-04-23 07:48 | 46.53176 | 26.90903 | 618 ft | 2 kts | 52° |
| 2026-04-23 07:48 | 46.53164 | 26.90886 | 625 ft | 2 kts | 21° |
| 2026-04-23 07:48 | 46.53148 | 26.90882 | 624 ft | 2 kts | 347° |
| 2026-04-23 07:48 | 46.53143 | 26.90884 | 622 ft | 0 kts | 344° |
| 2026-04-23 07:52 | 46.53147 | 26.90882 | 624 ft | 3 kts | 344° |
| 2026-04-23 07:52 | 46.53177 | 26.90870 | 619 ft | 6 kts | 345° |
| 2026-04-23 07:52 | 46.53228 | 26.90851 | 619 ft | 9 kts | 345° |
| 2026-04-23 07:52 | 46.53291 | 26.90815 | 623 ft | 11 kts | 315° |
| 2026-04-23 07:53 | 46.53296 | 26.90740 | 615 ft | 7 kts | 260° |
| 2026-04-23 07:53 | 46.53283 | 26.90666 | 619 ft | 8 kts | 253° |
| 2026-04-23 07:53 | 46.53260 | 26.90602 | 619 ft | 6 kts | 191° |
| 2026-04-23 07:53 | 46.53239 | 26.90605 | 621 ft | 0 kts | 167° |
| 2026-04-23 07:54 | 46.53237 | 26.90606 | 620 ft | 3 kts | 167° |
| 2026-04-23 07:55 | 46.53018 | 26.90690 | 617 ft | 69 kts | 165° |
| 2026-04-23 07:55 | 46.52341 | 26.90957 | 620 ft | 130 kts | 165° |
| 2026-04-23 07:55 | 46.51315 | 26.91354 | 667 ft | 167 kts | 166° |
| 2026-04-23 07:55 | 46.50216 | 26.91805 | 1206 ft | 163 kts | 168° |
| 2026-04-23 07:56 | 46.49131 | 26.92287 | 1790 ft | 165 kts | 168° |
| 2026-04-23 07:56 | 46.48001 | 26.92785 | 2260 ft | 176 kts | 169° |
| 2026-04-23 07:56 | 46.46792 | 26.93303 | 2752 ft | 185 kts | 168° |
| 2026-04-23 07:56 | 46.45526 | 26.93829 | 3282 ft | 195 kts | 171° |
| 2026-04-23 07:57 | 46.44151 | 26.94315 | 3567 ft | 218 kts | 171° |
| 2026-04-23 07:57 | 46.42600 | 26.94835 | 3905 ft | 240 kts | 175° |
| 2026-04-23 07:57 | 46.40946 | 26.94594 | 4412 ft | 242 kts | 213° |
| 2026-04-23 07:57 | 46.39755 | 26.92983 | 5127 ft | 234 kts | 248° |
| 2026-04-23 07:58 | 46.39405 | 26.90737 | 5864 ft | 229 kts | 280° |
| 2026-04-23 07:58 | 46.39963 | 26.88623 | 6634 ft | 228 kts | 311° |
| 2026-04-23 07:58 | 46.41248 | 26.87303 | 7445 ft | 231 kts | 339° |
| 2026-04-23 07:58 | 46.42791 | 26.86593 | 8200 ft | 234 kts | 340° |
| 2026-04-23 07:59 | 46.44328 | 26.85862 | 8971 ft | 237 kts | 340° |
| 2026-04-23 07:59 | 46.45900 | 26.85098 | 9809 ft | 240 kts | 339° |
| 2026-04-23 07:59 | 46.47487 | 26.84324 | 10532 ft | 242 kts | 340° |
| 2026-04-23 07:59 | 46.49058 | 26.83427 | 11261 ft | 244 kts | 328° |
| 2026-04-23 08:00 | 46.50311 | 26.81762 | 11964 ft | 249 kts | 306° |
| 2026-04-23 08:00 | 46.51019 | 26.79371 | 12311 ft | 274 kts | 283° |
| 2026-04-23 08:00 | 46.51070 | 26.76460 | 12485 ft | 302 kts | 273° |
| 2026-04-23 08:00 | 46.51015 | 26.73303 | 12703 ft | 322 kts | 272° |
| 2026-04-23 08:01 | 46.50949 | 26.70008 | 13250 ft | 330 kts | 272° |
| 2026-04-23 08:01 | 46.50879 | 26.66697 | 13886 ft | 335 kts | 272° |
| 2026-04-23 08:01 | 46.50816 | 26.63288 | 14481 ft | 339 kts | 274° |
| 2026-04-23 08:01 | 46.50822 | 26.59851 | 15075 ft | 343 kts | 276° |
| 2026-04-23 08:02 | 46.50886 | 26.56377 | 15662 ft | 346 kts | 277° |
| 2026-04-23 08:02 | 46.50978 | 26.52868 | 16247 ft | 350 kts | 277° |
| 2026-04-23 08:02 | 46.51078 | 26.49323 | 16835 ft | 354 kts | 277° |
| 2026-04-23 08:02 | 46.51172 | 26.45733 | 17418 ft | 358 kts | 277° |
| 2026-04-23 08:03 | 46.51257 | 26.42097 | 18019 ft | 363 kts | 277° |
| 2026-04-23 08:03 | 46.51333 | 26.38463 | 18529 ft | 367 kts | 277° |
| 2026-04-23 08:03 | 46.51404 | 26.34738 | 19049 ft | 371 kts | 277° |
| 2026-04-23 08:03 | 46.51470 | 26.30979 | 19574 ft | 375 kts | 277° |
| 2026-04-23 08:04 | 46.51534 | 26.27179 | 20101 ft | 379 kts | 277° |
| 2026-04-23 08:04 | 46.51598 | 26.23332 | 20587 ft | 383 kts | 277° |
| 2026-04-23 08:04 | 46.51662 | 26.19437 | 21096 ft | 387 kts | 277° |
| 2026-04-23 08:04 | 46.51727 | 26.15511 | 21597 ft | 391 kts | 277° |
| 2026-04-23 08:05 | 46.51791 | 26.11551 | 22103 ft | 395 kts | 277° |
| 2026-04-23 08:05 | 46.51856 | 26.07539 | 22607 ft | 399 kts | 277° |
| 2026-04-23 08:05 | 46.51918 | 26.03539 | 23100 ft | 404 kts | 277° |
| 2026-04-23 08:05 | 46.51979 | 25.99454 | 23568 ft | 408 kts | 277° |
| 2026-04-23 08:06 | 46.52036 | 25.95314 | 23969 ft | 412 kts | 277° |
| 2026-04-23 08:06 | 46.52095 | 25.91140 | 24365 ft | 415 kts | 277° |
| 2026-04-23 08:06 | 46.52156 | 25.86935 | 24777 ft | 418 kts | 277° |
| 2026-04-23 08:06 | 46.52217 | 25.82696 | 25160 ft | 422 kts | 277° |
| 2026-04-23 08:07 | 46.52277 | 25.78424 | 25534 ft | 425 kts | 277° |
| 2026-04-23 08:07 | 46.52335 | 25.74123 | 25920 ft | 428 kts | 277° |
| 2026-04-23 08:07 | 46.52390 | 25.69789 | 26309 ft | 431 kts | 277° |
| 2026-04-23 08:07 | 46.52442 | 25.65482 | 26676 ft | 434 kts | 277° |
| 2026-04-23 08:08 | 46.52492 | 25.61086 | 27034 ft | 437 kts | 277° |
| 2026-04-23 08:08 | 46.52539 | 25.56662 | 27388 ft | 440 kts | 277° |
| 2026-04-23 08:08 | 46.52584 | 25.52194 | 27736 ft | 443 kts | 277° |
| 2026-04-23 08:08 | 46.52635 | 25.47712 | 28084 ft | 446 kts | 277° |
| 2026-04-23 08:09 | 46.52690 | 25.43195 | 28431 ft | 449 kts | 277° |
| 2026-04-23 08:09 | 46.52742 | 25.38649 | 28767 ft | 452 kts | 277° |
| 2026-04-23 08:09 | 46.52789 | 25.34070 | 29095 ft | 455 kts | 277° |
| 2026-04-23 08:09 | 46.52817 | 25.31033 | 29314 ft | 457 kts | 277° |
| 2026-04-23 08:10 | 46.52855 | 25.26405 | 29640 ft | 459 kts | 277° |
| 2026-04-23 08:10 | 46.52903 | 25.20234 | 30075 ft | 463 kts | 277° |
| 2026-04-23 08:10 | 46.52970 | 25.10838 | 30617 ft | 468 kts | 277° |
| 2026-04-23 08:11 | 46.53003 | 25.06096 | 30939 ft | 469 kts | 277° |
| 2026-04-23 08:11 | 46.53035 | 25.01360 | 31337 ft | 469 kts | 277° |
| 2026-04-23 08:11 | 46.53056 | 24.98232 | 31599 ft | 468 kts | 277° |
| 2026-04-23 08:11 | 46.53087 | 24.93514 | 31985 ft | 468 kts | 277° |
| 2026-04-23 08:12 | 46.53114 | 24.88787 | 32380 ft | 468 kts | 277° |
| 2026-04-23 08:12 | 46.53139 | 24.84064 | 32757 ft | 467 kts | 277° |
| 2026-04-23 08:12 | 46.53160 | 24.79347 | 33147 ft | 467 kts | 277° |
| 2026-04-23 08:12 | 46.53178 | 24.74633 | 33544 ft | 467 kts | 277° |
| 2026-04-23 08:13 | 46.53199 | 24.68389 | 34063 ft | 467 kts | 277° |
| 2026-04-23 08:13 | 46.53208 | 24.65208 | 34279 ft | 466 kts | 276° |
| 2026-04-23 08:13 | 46.53221 | 24.60497 | 34604 ft | 466 kts | 276° |
| 2026-04-23 08:13 | 46.53234 | 24.55872 | 34915 ft | 465 kts | 276° |
| 2026-04-23 08:14 | 46.53261 | 24.46418 | 35036 ft | 473 kts | 276° |
| 2026-04-23 08:14 | 46.53275 | 24.36983 | 35032 ft | 464 kts | 276° |
| 2026-04-23 08:15 | 46.53280 | 24.27618 | 35028 ft | 463 kts | 276° |
| 2026-04-23 08:15 | 46.53275 | 24.18261 | 35036 ft | 463 kts | 275° |
| 2026-04-23 08:16 | 46.53263 | 24.08963 | 35054 ft | 463 kts | 275° |
| 2026-04-23 08:16 | 46.53247 | 23.99606 | 35055 ft | 464 kts | 275° |
| 2026-04-23 08:17 | 46.53222 | 23.90227 | 35054 ft | 464 kts | 275° |
| 2026-04-23 08:17 | 46.53182 | 23.80845 | 35058 ft | 465 kts | 275° |
| 2026-04-23 08:18 | 46.53142 | 23.71513 | 35060 ft | 465 kts | 275° |
| 2026-04-23 08:18 | 46.53099 | 23.62112 | 35057 ft | 466 kts | 275° |
| 2026-04-23 08:19 | 46.53042 | 23.52707 | 35057 ft | 466 kts | 275° |
| 2026-04-23 08:19 | 46.52980 | 23.43299 | 35061 ft | 466 kts | 274° |
| 2026-04-23 08:20 | 46.52911 | 23.33894 | 35057 ft | 466 kts | 274° |
| 2026-04-23 08:20 | 46.52827 | 23.24550 | 35064 ft | 466 kts | 274° |
| 2026-04-23 08:21 | 46.52730 | 23.15158 | 35070 ft | 465 kts | 274° |
| 2026-04-23 08:21 | 46.52645 | 23.05758 | 35077 ft | 465 kts | 274° |
| 2026-04-23 08:22 | 46.52547 | 22.96366 | 35074 ft | 465 kts | 274° |
| 2026-04-23 08:22 | 46.52427 | 22.87039 | 35084 ft | 465 kts | 274° |
| 2026-04-23 08:23 | 46.52303 | 22.77660 | 35080 ft | 465 kts | 274° |
| 2026-04-23 08:23 | 46.52182 | 22.68278 | 35082 ft | 465 kts | 274° |
| 2026-04-23 08:24 | 46.52059 | 22.58895 | 35081 ft | 465 kts | 274° |
| 2026-04-23 08:24 | 46.51925 | 22.49502 | 35088 ft | 466 kts | 273° |
| 2026-04-23 08:25 | 46.51776 | 22.40161 | 35093 ft | 466 kts | 273° |
| 2026-04-23 08:25 | 46.51615 | 22.30759 | 35097 ft | 466 kts | 273° |
| 2026-04-23 08:26 | 46.51449 | 22.21361 | 35098 ft | 466 kts | 273° |
| 2026-04-23 08:26 | 46.51274 | 22.11959 | 35100 ft | 465 kts | 273° |
| 2026-04-23 08:27 | 46.51098 | 22.02633 | 35101 ft | 466 kts | 272° |
| 2026-04-23 08:27 | 46.50907 | 21.93226 | 35101 ft | 466 kts | 272° |
| 2026-04-23 08:28 | 46.50716 | 21.83839 | 35098 ft | 466 kts | 272° |
| 2026-04-23 08:28 | 46.50512 | 21.74436 | 35100 ft | 466 kts | 272° |
| 2026-04-23 08:29 | 46.50303 | 21.65099 | 35099 ft | 466 kts | 272° |
| 2026-04-23 08:29 | 46.50089 | 21.55709 | 35103 ft | 466 kts | 272° |
| 2026-04-23 08:30 | 46.49863 | 21.46325 | 35104 ft | 466 kts | 272° |
| 2026-04-23 08:30 | 46.49626 | 21.36932 | 35109 ft | 466 kts | 272° |
| 2026-04-23 08:31 | 46.49373 | 21.27544 | 35111 ft | 466 kts | 270° |
| 2026-04-23 08:31 | 46.48500 | 21.18248 | 35116 ft | 469 kts | 265° |
| 2026-04-23 08:32 | 46.47535 | 21.08904 | 35115 ft | 468 kts | 265° |
| 2026-04-23 08:32 | 46.46561 | 20.99560 | 35118 ft | 468 kts | 265° |
| 2026-04-23 08:33 | 46.45586 | 20.90227 | 35109 ft | 468 kts | 265° |
| 2026-04-23 08:33 | 46.44601 | 20.80881 | 35121 ft | 468 kts | 265° |
| 2026-04-23 08:34 | 46.43615 | 20.71617 | 35109 ft | 468 kts | 264° |
| 2026-04-23 08:34 | 46.42614 | 20.62292 | 35109 ft | 468 kts | 264° |
| 2026-04-23 08:35 | 46.41608 | 20.52963 | 35115 ft | 468 kts | 264° |
| 2026-04-23 08:35 | 46.40596 | 20.43652 | 35111 ft | 468 kts | 264° |
| 2026-04-23 08:36 | 46.39580 | 20.34389 | 35127 ft | 468 kts | 264° |
| 2026-04-23 08:36 | 46.38546 | 20.25084 | 35115 ft | 468 kts | 264° |
| 2026-04-23 08:37 | 46.37501 | 20.15770 | 35115 ft | 468 kts | 264° |
| 2026-04-23 08:37 | 46.36452 | 20.06463 | 35118 ft | 468 kts | 264° |
| 2026-04-23 08:38 | 46.35391 | 19.97157 | 35123 ft | 469 kts | 264° |
| 2026-04-23 08:38 | 46.34278 | 19.87923 | 35125 ft | 469 kts | 263° |
| 2026-04-23 08:39 | 46.33107 | 19.78644 | 35124 ft | 469 kts | 263° |
| 2026-04-23 08:39 | 46.31929 | 19.69366 | 35129 ft | 469 kts | 263° |
| 2026-04-23 08:40 | 46.30758 | 19.60077 | 35130 ft | 469 kts | 263° |
| 2026-04-23 08:40 | 46.29585 | 19.50797 | 35134 ft | 469 kts | 263° |
| 2026-04-23 08:41 | 46.28406 | 19.41574 | 35139 ft | 469 kts | 263° |
| 2026-04-23 08:41 | 46.27213 | 19.32292 | 35141 ft | 470 kts | 263° |
| 2026-04-23 08:42 | 46.26012 | 19.23022 | 35142 ft | 470 kts | 263° |
| 2026-04-23 08:42 | 46.24804 | 19.13741 | 35145 ft | 470 kts | 262° |
| 2026-04-23 08:43 | 46.23591 | 19.04461 | 35150 ft | 470 kts | 262° |
| 2026-04-23 08:43 | 46.22373 | 18.95244 | 35148 ft | 470 kts | 262° |
| 2026-04-23 08:44 | 46.21134 | 18.85974 | 35155 ft | 471 kts | 262° |
| 2026-04-23 08:44 | 46.19895 | 18.76693 | 35156 ft | 471 kts | 262° |
| 2026-04-23 08:45 | 46.18654 | 18.67428 | 35162 ft | 471 kts | 262° |
| 2026-04-23 08:45 | 46.17397 | 18.58141 | 35175 ft | 471 kts | 262° |
| 2026-04-23 08:46 | 46.16134 | 18.48939 | 35178 ft | 471 kts | 262° |
| 2026-04-23 08:46 | 46.14861 | 18.39659 | 35188 ft | 471 kts | 262° |
| 2026-04-23 08:47 | 46.13584 | 18.30396 | 35193 ft | 472 kts | 262° |
| 2026-04-23 08:47 | 46.12292 | 18.21120 | 35195 ft | 472 kts | 262° |
| 2026-04-23 08:48 | 46.10995 | 18.11854 | 35192 ft | 472 kts | 262° |
| 2026-04-23 08:48 | 46.09690 | 18.02576 | 35197 ft | 472 kts | 261° |
| 2026-04-23 08:49 | 46.08385 | 17.93374 | 35192 ft | 472 kts | 261° |
| 2026-04-23 08:49 | 46.07056 | 17.84098 | 35199 ft | 473 kts | 261° |
| 2026-04-23 08:50 | 46.05732 | 17.74835 | 35204 ft | 473 kts | 261° |
| 2026-04-23 08:50 | 46.04395 | 17.65564 | 35206 ft | 473 kts | 261° |
| 2026-04-23 08:51 | 46.03051 | 17.56291 | 35216 ft | 473 kts | 261° |
| 2026-04-23 08:51 | 46.01694 | 17.47017 | 35219 ft | 474 kts | 261° |
| 2026-04-23 08:52 | 46.00335 | 17.37808 | 35220 ft | 474 kts | 261° |
| 2026-04-23 08:52 | 45.98949 | 17.28538 | 35221 ft | 475 kts | 259° |
| 2026-04-23 08:53 | 45.97250 | 17.19351 | 35224 ft | 476 kts | 256° |
| 2026-04-23 08:53 | 45.95327 | 17.10237 | 35228 ft | 476 kts | 255° |
| 2026-04-23 08:54 | 45.93419 | 17.01130 | 35225 ft | 476 kts | 256° |
| 2026-04-23 08:54 | 45.91586 | 16.92056 | 35228 ft | 476 kts | 256° |
| 2026-04-23 08:55 | 45.89757 | 16.82916 | 35226 ft | 476 kts | 256° |
| 2026-04-23 08:55 | 45.87910 | 16.73788 | 35230 ft | 476 kts | 256° |
| 2026-04-23 08:56 | 45.86041 | 16.64670 | 35225 ft | 477 kts | 256° |
| 2026-04-23 08:56 | 45.84157 | 16.55555 | 35227 ft | 477 kts | 256° |
| 2026-04-23 08:57 | 45.82286 | 16.46495 | 35236 ft | 477 kts | 256° |
| 2026-04-23 08:57 | 45.80399 | 16.37380 | 35231 ft | 477 kts | 256° |
| 2026-04-23 08:58 | 45.78509 | 16.28264 | 35241 ft | 477 kts | 255° |
| 2026-04-23 08:58 | 45.76608 | 16.19162 | 35246 ft | 477 kts | 255° |
| 2026-04-23 08:59 | 45.74704 | 16.10108 | 35243 ft | 478 kts | 255° |
| 2026-04-23 08:59 | 45.72784 | 16.01015 | 35240 ft | 478 kts | 255° |
| 2026-04-23 09:00 | 45.70853 | 15.91893 | 35239 ft | 478 kts | 255° |
| 2026-04-23 09:00 | 45.68917 | 15.82797 | 35236 ft | 479 kts | 255° |
| 2026-04-23 09:01 | 45.66980 | 15.73744 | 35233 ft | 479 kts | 254° |
| 2026-04-23 09:01 | 45.65022 | 15.64644 | 35249 ft | 479 kts | 254° |
| 2026-04-23 09:02 | 45.63060 | 15.55541 | 35249 ft | 479 kts | 254° |
| 2026-04-23 09:02 | 45.61092 | 15.46435 | 35254 ft | 480 kts | 254° |
| 2026-04-23 09:03 | 45.59146 | 15.37487 | 35253 ft | 480 kts | 254° |
| 2026-04-23 09:03 | 45.57279 | 15.28350 | 35250 ft | 479 kts | 261° |
| 2026-04-23 09:04 | 45.56122 | 15.19004 | 35250 ft | 478 kts | 262° |
| 2026-04-23 09:04 | 45.54956 | 15.09746 | 35255 ft | 478 kts | 261° |
| 2026-04-23 09:05 | 45.53774 | 15.00477 | 35249 ft | 478 kts | 261° |
| 2026-04-23 09:05 | 45.52575 | 14.91136 | 35248 ft | 479 kts | 261° |
| 2026-04-23 09:06 | 45.51374 | 14.81815 | 35246 ft | 479 kts | 261° |
| 2026-04-23 09:06 | 45.50163 | 14.72450 | 35255 ft | 480 kts | 261° |
| 2026-04-23 09:07 | 45.48956 | 14.63167 | 35239 ft | 480 kts | 261° |
| 2026-04-23 09:07 | 45.47733 | 14.53812 | 35239 ft | 480 kts | 261° |
| 2026-04-23 09:08 | 45.46490 | 14.44471 | 35238 ft | 480 kts | 261° |
| 2026-04-23 09:08 | 45.45245 | 14.35121 | 35239 ft | 481 kts | 261° |
| 2026-04-23 09:09 | 45.43998 | 14.25774 | 35245 ft | 481 kts | 261° |
| 2026-04-23 09:09 | 45.42743 | 14.16475 | 35245 ft | 481 kts | 260° |
| 2026-04-23 09:10 | 45.40831 | 14.02458 | 35260 ft | 481 kts | 260° |
| 2026-04-23 09:11 | 45.39544 | 13.93111 | 35265 ft | 481 kts | 260° |
| 2026-04-23 09:11 | 45.38264 | 13.83824 | 35274 ft | 481 kts | 260° |
| 2026-04-23 09:12 | 45.36973 | 13.74504 | 35275 ft | 481 kts | 260° |
| 2026-04-23 09:12 | 45.35671 | 13.65160 | 35275 ft | 481 kts | 260° |
| 2026-04-23 09:13 | 45.34357 | 13.55837 | 35278 ft | 481 kts | 259° |
| 2026-04-23 09:13 | 45.33055 | 13.46597 | 35272 ft | 478 kts | 259° |
| 2026-04-23 09:13 | 45.32404 | 13.41987 | 34975 ft | 473 kts | 259° |
| 2026-04-23 09:14 | 45.31757 | 13.37432 | 34604 ft | 469 kts | 259° |
| 2026-04-23 09:14 | 45.31113 | 13.32906 | 34222 ft | 467 kts | 259° |
| 2026-04-23 09:14 | 45.30465 | 13.28386 | 33776 ft | 464 kts | 259° |
| 2026-04-23 09:14 | 45.29818 | 13.23914 | 33352 ft | 461 kts | 259° |
| 2026-04-23 09:15 | 45.29180 | 13.19525 | 32947 ft | 458 kts | 259° |
| 2026-04-23 09:15 | 45.28539 | 13.15111 | 32542 ft | 455 kts | 259° |
| 2026-04-23 09:15 | 45.27902 | 13.10728 | 32146 ft | 452 kts | 259° |
| 2026-04-23 09:15 | 45.27266 | 13.06371 | 31760 ft | 449 kts | 259° |
| 2026-04-23 09:16 | 45.26633 | 13.02042 | 31385 ft | 446 kts | 259° |
| 2026-04-23 09:16 | 45.25814 | 12.97809 | 31010 ft | 443 kts | 249° |
| 2026-04-23 09:16 | 45.24732 | 12.93726 | 30620 ft | 441 kts | 249° |
| 2026-04-23 09:16 | 45.23656 | 12.89664 | 30234 ft | 439 kts | 249° |
| 2026-04-23 09:17 | 45.22599 | 12.85681 | 29820 ft | 436 kts | 249° |
| 2026-04-23 09:17 | 45.21532 | 12.81671 | 29416 ft | 433 kts | 249° |
| 2026-04-23 09:17 | 45.20473 | 12.77692 | 29046 ft | 430 kts | 249° |
| 2026-04-23 09:17 | 45.19417 | 12.73742 | 28680 ft | 427 kts | 249° |
| 2026-04-23 09:18 | 45.18405 | 12.69968 | 28333 ft | 424 kts | 249° |
| 2026-04-23 09:18 | 45.17357 | 12.66069 | 27966 ft | 421 kts | 249° |
| 2026-04-23 09:18 | 45.16314 | 12.62192 | 27611 ft | 419 kts | 249° |
| 2026-04-23 09:18 | 45.15285 | 12.58357 | 27248 ft | 416 kts | 249° |
| 2026-04-23 09:19 | 45.14263 | 12.54541 | 26877 ft | 413 kts | 249° |
| 2026-04-23 09:19 | 45.13256 | 12.50796 | 26531 ft | 410 kts | 249° |
| 2026-04-23 09:19 | 45.12240 | 12.47035 | 26164 ft | 408 kts | 249° |
| 2026-04-23 09:19 | 45.11227 | 12.43296 | 25790 ft | 405 kts | 249° |
| 2026-04-23 09:20 | 45.10218 | 12.39583 | 25427 ft | 402 kts | 249° |
| 2026-04-23 09:20 | 45.09214 | 12.35903 | 25060 ft | 400 kts | 249° |
| 2026-04-23 09:20 | 45.08217 | 12.32250 | 24698 ft | 397 kts | 249° |
| 2026-04-23 09:20 | 45.07217 | 12.28616 | 24335 ft | 395 kts | 247° |
| 2026-04-23 09:21 | 45.05993 | 12.25208 | 23993 ft | 392 kts | 242° |
| 2026-04-23 09:21 | 45.04703 | 12.21823 | 23582 ft | 390 kts | 242° |
| 2026-04-23 09:21 | 45.03418 | 12.18466 | 23171 ft | 387 kts | 242° |
| 2026-04-23 09:21 | 45.02136 | 12.15128 | 22762 ft | 385 kts | 242° |
| 2026-04-23 09:22 | 45.00866 | 12.11812 | 22367 ft | 382 kts | 242° |
| 2026-04-23 09:22 | 44.99606 | 12.08522 | 21981 ft | 380 kts | 242° |
| 2026-04-23 09:22 | 44.98356 | 12.05256 | 21599 ft | 377 kts | 242° |
| 2026-04-23 09:22 | 44.97112 | 12.02015 | 21219 ft | 374 kts | 242° |
| 2026-04-23 09:23 | 44.95888 | 11.98833 | 20831 ft | 372 kts | 242° |
| 2026-04-23 09:23 | 44.94638 | 11.95591 | 20147 ft | 380 kts | 242° |
| 2026-04-23 09:23 | 44.93376 | 11.92323 | 19525 ft | 377 kts | 242° |
| 2026-04-23 09:23 | 44.92132 | 11.89102 | 18923 ft | 370 kts | 242° |
| 2026-04-23 09:24 | 44.90909 | 11.85937 | 18296 ft | 364 kts | 242° |
| 2026-04-23 09:24 | 44.89704 | 11.82828 | 17621 ft | 359 kts | 242° |
| 2026-04-23 09:24 | 44.88511 | 11.79760 | 16965 ft | 354 kts | 242° |
| 2026-04-23 09:24 | 44.87347 | 11.76772 | 16328 ft | 350 kts | 242° |
| 2026-04-23 09:25 | 44.86183 | 11.73781 | 15698 ft | 346 kts | 242° |
| 2026-04-23 09:25 | 44.85030 | 11.70825 | 15076 ft | 343 kts | 242° |
| 2026-04-23 09:25 | 44.83886 | 11.67894 | 14464 ft | 339 kts | 242° |
| 2026-04-23 09:25 | 44.82754 | 11.64999 | 13843 ft | 336 kts | 242° |
| 2026-04-23 09:26 | 44.81633 | 11.62133 | 13171 ft | 333 kts | 242° |
| 2026-04-23 09:26 | 44.80567 | 11.59260 | 12514 ft | 329 kts | 245° |
| 2026-04-23 09:26 | 44.79581 | 11.56371 | 11876 ft | 326 kts | 246° |
| 2026-04-23 09:26 | 44.78648 | 11.53524 | 11255 ft | 323 kts | 247° |
| 2026-04-23 09:27 | 44.77720 | 11.50653 | 10635 ft | 321 kts | 247° |
| 2026-04-23 09:27 | 44.76801 | 11.47812 | 10015 ft | 318 kts | 247° |
| 2026-04-23 09:27 | 44.75879 | 11.45000 | 9341 ft | 315 kts | 246° |
| 2026-04-23 09:27 | 44.74958 | 11.42230 | 8691 ft | 311 kts | 246° |
| 2026-04-23 09:28 | 44.74040 | 11.39483 | 8051 ft | 309 kts | 246° |
| 2026-04-23 09:28 | 44.73101 | 11.36792 | 7416 ft | 306 kts | 240° |
| 2026-04-23 09:28 | 44.71789 | 11.34455 | 6792 ft | 304 kts | 223° |
| 2026-04-23 09:28 | 44.70115 | 11.32750 | 6157 ft | 301 kts | 207° |
| 2026-04-23 09:29 | 44.68197 | 11.31649 | 5514 ft | 296 kts | 199° |
| 2026-04-23 09:29 | 44.66218 | 11.31041 | 4900 ft | 288 kts | 175° |
| 2026-04-23 09:29 | 44.64379 | 11.31823 | 4631 ft | 269 kts | 147° |
| 2026-04-23 09:29 | 44.63063 | 11.33541 | 4364 ft | 253 kts | 122° |
| 2026-04-23 09:30 | 44.62263 | 11.35667 | 4117 ft | 244 kts | 115° |
| 2026-04-23 09:30 | 44.61500 | 11.37799 | 3853 ft | 244 kts | 116° |
| 2026-04-23 09:30 | 44.60743 | 11.39878 | 3659 ft | 240 kts | 116° |
| 2026-04-23 09:30 | 44.59983 | 11.41947 | 3535 ft | 238 kts | 117° |
| 2026-04-23 09:31 | 44.59221 | 11.44015 | 3406 ft | 238 kts | 117° |
| 2026-04-23 09:31 | 44.58464 | 11.46079 | 3269 ft | 238 kts | 117° |
| 2026-04-23 09:31 | 44.57713 | 11.48147 | 3147 ft | 237 kts | 116° |
| 2026-04-23 09:31 | 44.56975 | 11.50214 | 3036 ft | 237 kts | 116° |
| 2026-04-23 09:32 | 44.56238 | 11.52279 | 3008 ft | 237 kts | 116° |
| 2026-04-23 09:32 | 44.55499 | 11.54346 | 3004 ft | 237 kts | 116° |
| 2026-04-23 09:32 | 44.54761 | 11.56409 | 3010 ft | 237 kts | 116° |
| 2026-04-23 09:32 | 44.54029 | 11.58448 | 3010 ft | 237 kts | 116° |
| 2026-04-23 09:33 | 44.53288 | 11.60506 | 3006 ft | 237 kts | 117° |
| 2026-04-23 09:33 | 44.52250 | 11.62268 | 3004 ft | 237 kts | 145° |
| 2026-04-23 09:33 | 44.50714 | 11.63056 | 3004 ft | 238 kts | 176° |
| 2026-04-23 09:33 | 44.49098 | 11.62648 | 3006 ft | 240 kts | 204° |
| 2026-04-23 09:34 | 44.47605 | 11.61599 | 3006 ft | 241 kts | 206° |
| 2026-04-23 09:34 | 44.46217 | 11.60353 | 3005 ft | 232 kts | 222° |
| 2026-04-23 09:34 | 44.45849 | 11.59840 | 3005 ft | 228 kts | 228° |